x

Newport, Or (nwpo3) Weather Station

3:00pm - Fri 23rd Jun 2017 All times are PDT. -7 hours from GMT.

  • Wind
    26mph, 30mph gusts
  • Air Temp 57°f
  • Sea Pressure 1016.9mb
  • Newport, Or
  • Newport, Or

More Historic Weather Station data

Upgrade to MSW Pro to gain access to the past 30 days of data for over 8000 Wavebouys and Weather Stations around the globe.

Join Pro

Comparision Forecast

View Surf forecast
   
Fri 06/23 3:00pm 26 30 mph 1016.9mb 57f
2:00pm 22 23 mph 1017.6mb 55f
1:00pm 16 18 mph 1018mb 55f
12:00pm 20 23 mph 1018.1mb 54f
11:00am 17 20 mph 1018.3mb 53f
10:00am 17 18 mph 1018.6mb 52f
9:00am 9 9 mph 1018.9mb 51f
8:00am 5 5 mph 1019mb 50f
7:00am 5 6 mph 1019.3mb 49f
6:00am 1 2 mph 1019.2mb 50f
5:00am 3 3 mph 1019.3mb 51f
4:00am 2 3 mph 1019.5mb 50f
3:00am 2 3 mph 1019.8mb 51f
2:00am 6 7 mph 1020.3mb 51f
1:00am 3 5 mph 1020.4mb 51f
12:00am 10 13 mph 1020.4mb 51f
Thu 06/22 11:00pm 14 15 mph 1020.6mb 52f
10:00pm 16 18 mph 1020.8mb 54f
9:00pm 30 32 mph 1020.1mb 54f
8:00pm 29 33 mph 1020mb 55f
7:00pm 31 37 mph 1020.1mb 54f
6:00pm 33 38 mph 1019.8mb 56f
5:00pm 34 39 mph 1019.9mb 55f
4:00pm 33 37 mph 1020.6mb 55f
3:00pm 31 38 mph 1021mb 55f
2:00pm 26 30 mph 1021.4mb 54f
1:00pm 26 30 mph 1021.7mb 54f
12:00pm 23 26 mph 1022.2mb 53f
11:00am 17 21 mph 1022.8mb 53f
10:00am 15 17 mph 1023mb 52f
9:00am 1 2 mph 1023mb 56f
8:00am 2 3 mph 1023.2mb 52f
7:00am 2 2 mph 1023.3mb 51f
6:00am 2 2 mph 1023.3mb 49f
5:00am 5 5 mph 1023.3mb 49f
4:00am 3 3 mph 1023.7mb 50f
3:00am 2 3 mph 1023.8mb 51f
2:00am 6 7 mph 1023.5mb 52f
1:00am 10 13 mph 1023.5mb 55f
12:00am 14 18 mph 1023.7mb 55f
Wed 06/21 11:00pm 14 15 mph 1023.7mb 53f
10:00pm 15 21 mph 1023.4mb 55f
9:00pm 29 32 mph 1023.1mb 55f
8:00pm 28 31 mph 1023.3mb 54f
7:00pm 30 34 mph 1023.1mb 54f
6:00pm 29 32 mph 1023.6mb 55f
5:00pm 29 32 mph 1023.9mb 55f
4:00pm 28 31 mph 1024.3mb 55f
3:00pm 26 31 mph 1024.7mb 55f
2:00pm 26 31 mph 1025.4mb 55f
1:00pm 28 31 mph 1025.4mb 55f
12:00pm 29 33 mph 1026mb 55f
11:00am 26 30 mph 1026mb 55f
10:00am 22 25 mph 1026.1mb 55f
9:00am 18 21 mph 1025.6mb 55f
8:00am 17 22 mph 1025.9mb 55f
7:00am 13 15 mph 1025.8mb 55f
6:00am 14 15 mph 1025.4mb 54f
5:00am 23 25 mph 1025.1mb 55f
4:00am 14 16 mph 1024.9mb 54f
3:00am 10 14 mph 1024.8mb 54f
2:00am 13 16 mph 1024.6mb 55f
1:00am 10 14 mph 1024.6mb 55f
12:00am 17 28 mph 1024.5mb 56f
Tue 06/20 11:00pm 21 26 mph 1024.3mb 56f
10:00pm 22 30 mph 1024.2mb 56f
9:00pm 28 32 mph 1023.7mb 56f
8:00pm 26 32 mph 1023.4mb 57f
7:00pm 29 32 mph 1023mb 58f
6:00pm 24 26 mph 1022.9mb 58f
5:00pm 25 30 mph 1022.6mb 58f
4:00pm 25 29 mph 1022.9mb 58f
3:00pm 18 22 mph 1023mb 59f
2:00pm 10 11 mph 1023mb 58f
1:00pm 10 11 mph 1022.8mb 58f
12:00pm 6 8 mph 1022.3mb 58f
11:00am 7 8 mph 1022.1mb 57f
10:00am 5 5 mph 1021.7mb 57f
9:00am 3 3 mph 1021.3mb 57f
8:00am 2 3 mph 1021mb 57f
7:00am 3 5 mph 1020.5mb 56f
6:00am  -  1 mph 1020mb 56f
5:00am 1 2 mph 1020mb 56f
4:00am 2 3 mph 1019.5mb 56f
3:00am 2 3 mph 1019mb 56f
2:00am 7 9 mph 1019.3mb 56f
1:00am 3 5 mph 1019.4mb 56f
12:00am  -  1 mph 1019.4mb 57f